createdAt,value
2023-10-06T00:01:58.218Z,13.50
2023-10-06T00:04:59.986Z,13.43
2023-10-06T00:08:01.609Z,13.30
2023-10-06T00:11:03.157Z,13.43
2023-10-06T00:14:04.749Z,13.46
2023-10-06T00:17:06.356Z,13.22
2023-10-06T00:20:07.881Z,13.09
2023-10-06T00:23:09.507Z,13.36
2023-10-06T00:26:11.014Z,13.46
2023-10-06T00:29:12.615Z,13.35
2023-10-06T00:32:14.139Z,13.44
2023-10-06T00:35:15.746Z,13.44
2023-10-06T00:38:17.289Z,13.42
2023-10-06T00:41:18.824Z,13.35
2023-10-06T00:44:20.346Z,13.24
2023-10-06T00:47:21.875Z,13.15
2023-10-06T00:50:23.471Z,13.35
2023-10-06T00:53:24.984Z,13.40
2023-10-06T00:56:26.853Z,13.36
2023-10-06T00:59:28.592Z,13.44
2023-10-06T01:02:30.303Z,13.31
2023-10-06T01:05:31.995Z,13.32
2023-10-06T01:08:33.609Z,13.43
2023-10-06T01:11:35.120Z,13.50
2023-10-06T01:14:36.617Z,13.41
2023-10-06T01:17:38.116Z,13.45
2023-10-06T01:20:39.670Z,13.40
2023-10-06T01:23:41.140Z,13.24
2023-10-06T01:26:42.637Z,13.33
2023-10-06T01:29:44.256Z,13.24
2023-10-06T01:32:45.863Z,13.36
2023-10-06T01:35:47.435Z,13.37
2023-10-06T01:38:48.940Z,13.26
2023-10-06T01:41:50.425Z,13.35
2023-10-06T01:44:51.955Z,13.39
2023-10-06T01:47:53.525Z,13.15
2023-10-06T01:50:55.068Z,13.27
2023-10-06T01:53:56.587Z,13.35
2023-10-06T01:56:58.096Z,13.37
2023-10-06T01:59:59.726Z,13.21
2023-10-06T02:03:01.310Z,13.19
2023-10-06T02:06:02.945Z,13.28
2023-10-06T02:09:04.442Z,13.28
2023-10-06T02:12:05.957Z,13.34
2023-10-06T02:15:07.399Z,13.35
2023-10-06T02:18:08.964Z,13.39
2023-10-06T02:21:10.692Z,13.43
2023-10-06T02:24:12.319Z,13.46
2023-10-06T02:27:13.795Z,13.47
2023-10-06T02:30:15.301Z,13.37
2023-10-06T02:33:16.806Z,13.15
2023-10-06T02:36:18.365Z,13.21
2023-10-06T02:39:19.833Z,13.29
2023-10-06T02:42:21.344Z,13.40
2023-10-06T02:45:22.849Z,13.39
2023-10-06T02:48:24.427Z,13.37
2023-10-06T02:51:26.154Z,13.38
2023-10-06T02:54:27.663Z,13.21
2023-10-06T02:57:29.199Z,13.25
2023-10-06T03:00:30.750Z,13.36
2023-10-06T03:03:32.378Z,13.39
2023-10-06T03:06:33.911Z,13.46
2023-10-06T03:09:35.393Z,13.38
2023-10-06T03:12:36.994Z,13.27
2023-10-06T03:15:39.761Z,13.32
2023-10-06T03:18:41.328Z,13.35
2023-10-06T03:21:42.833Z,13.21
2023-10-06T03:24:44.384Z,13.11
2023-10-06T03:27:45.988Z,13.16
2023-10-06T03:30:47.512Z,13.19
2023-10-06T03:33:49.097Z,13.08
2023-10-06T03:36:50.607Z,13.21
2023-10-06T03:39:52.100Z,13.20
2023-10-06T03:42:53.640Z,13.26
2023-10-06T03:45:55.150Z,13.31
2023-10-06T03:48:56.654Z,13.13
2023-10-06T03:51:58.222Z,13.24
2023-10-06T03:54:59.734Z,13.25
2023-10-06T03:58:01.297Z,13.25
2023-10-06T04:01:02.901Z,13.29
2023-10-06T04:04:04.475Z,12.96
2023-10-06T04:07:06.060Z,13.03
2023-10-06T04:10:07.590Z,12.97
2023-10-06T04:13:09.126Z,12.95
2023-10-06T04:16:10.678Z,12.97
2023-10-06T04:19:12.232Z,12.88
2023-10-06T04:22:13.746Z,13.08
2023-10-06T04:25:15.346Z,13.10
2023-10-06T04:28:16.859Z,13.20
2023-10-06T04:31:18.419Z,13.14
2023-10-06T04:34:19.946Z,13.06
2023-10-06T04:37:21.469Z,12.86
2023-10-06T04:40:22.983Z,12.95
2023-10-06T04:43:24.494Z,13.07
2023-10-06T04:46:26.062Z,13.13
2023-10-06T04:49:27.602Z,12.99
2023-10-06T04:52:29.141Z,13.00
2023-10-06T04:55:30.640Z,12.93
2023-10-06T04:58:32.161Z,12.97
2023-10-06T05:01:33.660Z,13.00
2023-10-06T05:04:35.206Z,12.87
2023-10-06T05:07:36.694Z,12.86
2023-10-06T05:10:38.210Z,12.90
2023-10-06T05:13:39.767Z,12.99
2023-10-06T05:16:41.460Z,12.82
2023-10-06T05:19:43.117Z,12.89
2023-10-06T05:22:44.693Z,12.80
2023-10-06T05:25:46.318Z,12.68
2023-10-06T05:28:47.992Z,12.83
2023-10-06T05:31:49.546Z,12.96
2023-10-06T05:34:51.165Z,12.87
2023-10-06T05:37:52.758Z,12.85
2023-10-06T05:40:54.385Z,12.83
2023-10-06T05:43:56.001Z,12.89
2023-10-06T05:46:57.555Z,12.84
2023-10-06T05:49:59.072Z,12.65
2023-10-06T05:53:00.677Z,12.78
2023-10-06T05:56:02.272Z,12.85
2023-10-06T05:59:03.852Z,12.67
2023-10-06T06:02:05.416Z,12.84
2023-10-06T06:05:06.884Z,12.78
2023-10-06T06:08:08.472Z,12.67
2023-10-06T06:11:10.117Z,12.71
2023-10-06T06:14:17.887Z,12.86
2023-10-06T06:17:19.841Z,12.98
2023-10-06T06:20:21.368Z,12.94
2023-10-06T06:23:22.890Z,12.97
2023-10-06T06:26:24.390Z,12.64
2023-10-06T06:29:25.924Z,12.75
2023-10-06T06:32:27.524Z,12.92
2023-10-06T06:35:29.073Z,12.96
2023-10-06T06:38:30.582Z,12.64
2023-10-06T06:41:32.107Z,12.74
2023-10-06T06:44:33.555Z,12.92
2023-10-06T06:47:35.066Z,13.02
2023-10-06T06:50:36.703Z,13.01
2023-10-06T06:53:38.233Z,13.03
2023-10-06T06:56:39.770Z,13.00
2023-10-06T06:59:41.358Z,12.93
2023-10-06T07:02:43.084Z,13.20
2023-10-06T07:05:44.635Z,13.13
2023-10-06T07:08:46.220Z,13.24
2023-10-06T07:11:47.705Z,13.20
2023-10-06T07:14:49.210Z,13.06
2023-10-06T07:17:50.766Z,13.15
2023-10-06T07:20:52.386Z,13.38
2023-10-06T07:23:53.928Z,13.27
2023-10-06T07:26:55.448Z,13.36
2023-10-06T07:29:57.045Z,13.40
2023-10-06T07:32:58.712Z,13.64
2023-10-06T07:36:00.264Z,13.74
2023-10-06T07:39:01.792Z,13.94
2023-10-06T07:42:03.303Z,14.14
2023-10-06T07:45:04.854Z,14.12
2023-10-06T07:48:06.467Z,14.28
2023-10-06T07:51:08.004Z,14.29
2023-10-06T07:54:09.918Z,14.43
2023-10-06T07:57:11.559Z,14.55
2023-10-06T08:00:13.079Z,14.77
2023-10-06T08:03:14.600Z,14.97
2023-10-06T08:06:16.192Z,15.06
2023-10-06T08:09:17.793Z,15.17
2023-10-06T08:12:19.259Z,15.01
2023-10-06T08:15:20.729Z,14.83
2023-10-06T08:18:22.259Z,14.88
2023-10-06T08:21:23.749Z,14.92
2023-10-06T08:24:25.298Z,14.92
2023-10-06T08:27:26.785Z,14.96
2023-10-06T08:30:29.250Z,15.18
2023-10-06T08:33:30.823Z,15.30
2023-10-06T08:36:32.369Z,15.34
2023-10-06T08:39:33.893Z,15.36
2023-10-06T08:42:35.555Z,15.43
2023-10-06T08:45:37.136Z,15.33
2023-10-06T08:48:38.787Z,15.20
2023-10-06T08:51:40.306Z,15.13
2023-10-06T08:54:41.848Z,15.07
2023-10-06T08:57:43.372Z,15.34
2023-10-06T09:00:45.054Z,15.18
2023-10-06T09:03:46.974Z,15.26
2023-10-06T09:06:48.481Z,15.26
2023-10-06T09:09:50.025Z,15.17
2023-10-06T09:12:51.538Z,15.27
2023-10-06T09:15:53.043Z,15.30
2023-10-06T09:18:54.620Z,15.32
2023-10-06T09:21:56.253Z,15.16
2023-10-06T09:24:57.794Z,15.23
2023-10-06T09:27:59.348Z,15.19
2023-10-06T09:31:00.887Z,15.28
2023-10-06T09:34:02.397Z,15.63
2023-10-06T09:37:04.012Z,15.64
2023-10-06T09:40:05.556Z,15.63
2023-10-06T09:43:07.076Z,15.55
2023-10-06T09:46:08.647Z,15.51
2023-10-06T09:49:10.250Z,15.30
2023-10-06T09:52:11.787Z,15.36
2023-10-06T09:55:13.291Z,15.31
2023-10-06T09:58:14.835Z,15.24
2023-10-06T10:01:16.487Z,15.29
2023-10-06T10:04:18.123Z,15.42
2023-10-06T10:07:19.608Z,15.44
2023-10-06T10:10:21.166Z,15.30
2023-10-06T10:13:22.707Z,15.36
2023-10-06T10:16:24.255Z,15.66
2023-10-06T10:19:25.809Z,15.84
2023-10-06T10:22:27.338Z,15.36
2023-10-06T10:25:29.056Z,15.36
2023-10-06T10:28:30.729Z,15.49
2023-10-06T10:34:35.230Z,15.61
2023-10-06T10:37:36.980Z,15.33
2023-10-06T10:40:38.525Z,15.31
2023-10-06T10:43:40.127Z,15.43
2023-10-06T10:46:45.276Z,15.49
2023-10-06T10:49:46.809Z,15.47
2023-10-06T10:52:48.361Z,15.44
2023-10-06T10:55:49.986Z,15.34
2023-10-06T10:58:51.613Z,15.37
2023-10-06T11:01:53.205Z,15.61
2023-10-06T11:04:54.832Z,15.65
2023-10-06T11:07:56.476Z,15.53
2023-10-06T11:10:58.236Z,15.47
2023-10-06T11:14:02.784Z,15.59
2023-10-06T11:17:08.380Z,15.61
2023-10-06T11:20:10.141Z,15.60
2023-10-06T11:23:11.683Z,15.47
2023-10-06T11:26:13.348Z,15.42
2023-10-06T11:29:14.916Z,15.34
2023-10-06T11:32:16.575Z,15.35
2023-10-06T11:35:18.257Z,15.42
2023-10-06T11:38:19.854Z,15.36
2023-10-06T11:41:21.444Z,15.35
2023-10-06T11:44:23.121Z,15.35
2023-10-06T11:47:24.883Z,15.52
2023-10-06T11:50:26.446Z,15.58
2023-10-06T11:53:28.090Z,15.52
2023-10-06T11:56:29.672Z,15.38
2023-10-06T11:59:31.228Z,15.44
2023-10-06T12:02:32.859Z,15.51
2023-10-06T12:05:34.511Z,15.52
2023-10-06T12:08:36.107Z,15.52
2023-10-06T12:11:37.680Z,15.44
2023-10-06T12:14:39.300Z,15.47
2023-10-06T12:17:40.914Z,15.46
2023-10-06T12:20:42.619Z,15.35
2023-10-06T12:23:44.237Z,15.38
2023-10-06T12:26:45.748Z,15.42
2023-10-06T12:29:50.170Z,15.41
2023-10-06T12:32:51.889Z,15.38
2023-10-06T12:35:53.462Z,15.47
2023-10-06T12:38:55.041Z,15.46
2023-10-06T12:41:56.551Z,15.38
2023-10-06T12:44:58.078Z,15.45
2023-10-06T12:47:59.605Z,15.43
2023-10-06T12:51:01.215Z,15.44
2023-10-06T12:54:02.718Z,15.49
2023-10-06T12:57:04.294Z,15.41
2023-10-06T13:00:05.874Z,15.51
2023-10-06T13:03:07.480Z,15.43
2023-10-06T13:06:09.122Z,15.46
2023-10-06T13:09:10.686Z,15.53
2023-10-06T13:12:12.290Z,15.56
2023-10-06T13:15:13.864Z,15.53
2023-10-06T13:18:15.452Z,15.57
2023-10-06T13:21:16.992Z,15.50
2023-10-06T13:24:18.580Z,15.56
2023-10-06T13:27:20.079Z,15.61
2023-10-06T13:30:21.644Z,15.75
2023-10-06T13:33:23.345Z,15.69
2023-10-06T13:36:25.044Z,15.65
2023-10-06T13:39:26.732Z,15.56
2023-10-06T13:42:30.133Z,15.50
2023-10-06T13:45:31.665Z,15.57
2023-10-06T13:48:33.302Z,15.62
2023-10-06T13:51:34.879Z,15.64
2023-10-06T13:54:36.366Z,15.65
2023-10-06T13:57:37.905Z,15.67
2023-10-06T14:00:39.416Z,15.67
2023-10-06T14:03:41.068Z,15.68
2023-10-06T14:06:42.690Z,15.74
2023-10-06T14:09:44.272Z,15.71
2023-10-06T14:12:45.808Z,15.69
2023-10-06T14:15:47.320Z,15.70
2023-10-06T14:18:48.842Z,15.73
2023-10-06T14:21:50.387Z,15.75
2023-10-06T14:24:51.904Z,15.73
2023-10-06T14:27:53.365Z,15.77
2023-10-06T14:30:54.933Z,15.79
2023-10-06T14:33:56.492Z,15.76
2023-10-06T14:36:57.967Z,15.76
2023-10-06T14:39:59.546Z,15.70
2023-10-06T14:43:01.038Z,15.75
2023-10-06T14:46:02.795Z,15.79
2023-10-06T14:49:04.353Z,15.79
2023-10-06T14:52:05.860Z,15.80
2023-10-06T14:55:07.356Z,15.83
2023-10-06T14:58:08.845Z,15.86
2023-10-06T15:01:14.675Z,15.84
2023-10-06T15:04:16.345Z,15.87
2023-10-06T15:07:20.518Z,15.87
2023-10-06T15:10:22.048Z,15.88
2023-10-06T15:13:23.630Z,15.89
2023-10-06T15:16:25.382Z,15.89
2023-10-06T15:19:31.156Z,15.89
2023-10-06T15:22:32.832Z,15.88
2023-10-06T15:25:36.143Z,15.88
2023-10-06T15:28:39.536Z,15.90
2023-10-06T15:31:41.388Z,15.90
2023-10-06T15:34:42.896Z,15.90
2023-10-06T15:37:44.416Z,15.91
2023-10-06T15:40:45.994Z,15.92
2023-10-06T15:43:47.545Z,15.92
2023-10-06T15:46:49.041Z,15.91
2023-10-06T15:49:54.480Z,15.94
2023-10-06T15:53:04.364Z,15.93
2023-10-06T15:56:05.974Z,15.94
2023-10-06T15:59:07.834Z,15.95
2023-10-06T16:02:09.545Z,15.95
2023-10-06T16:05:11.164Z,15.96
2023-10-06T16:08:12.730Z,15.99
2023-10-06T16:11:14.311Z,15.99
2023-10-06T16:14:17.824Z,15.97
2023-10-06T16:17:19.558Z,16.02
2023-10-06T16:20:21.269Z,16.03
2023-10-06T16:23:22.886Z,16.03
2023-10-06T16:26:24.434Z,16.05
2023-10-06T16:29:26.041Z,16.06
2023-10-06T16:32:27.667Z,16.07
2023-10-06T16:35:29.318Z,16.09
2023-10-06T16:38:30.887Z,16.09
2023-10-06T16:41:32.548Z,16.09
2023-10-06T16:44:34.181Z,16.04
2023-10-06T16:47:35.960Z,16.05
2023-10-06T16:50:37.658Z,16.06
2023-10-06T16:53:39.305Z,16.06
2023-10-06T16:56:40.936Z,16.04
2023-10-06T16:59:42.554Z,16.06
2023-10-06T17:02:44.221Z,15.99
2023-10-06T17:05:45.916Z,15.97
2023-10-06T17:08:47.452Z,15.94
2023-10-06T17:11:49.260Z,15.93
2023-10-06T17:14:51.746Z,15.92
2023-10-06T17:17:53.380Z,15.92
2023-10-06T17:20:54.960Z,15.89
2023-10-06T17:23:56.428Z,15.87
2023-10-06T17:26:57.990Z,15.83
2023-10-06T17:29:59.575Z,15.86
2023-10-06T17:33:01.215Z,15.87
2023-10-06T17:36:02.807Z,15.83
2023-10-06T17:39:04.386Z,15.84
2023-10-06T17:42:09.929Z,15.81
2023-10-06T17:45:11.413Z,15.82
2023-10-06T17:48:13.034Z,15.82
2023-10-06T17:51:17.088Z,15.79
2023-10-06T17:54:18.610Z,15.72
2023-10-06T17:57:20.115Z,15.67
2023-10-06T18:00:21.633Z,15.67
2023-10-06T18:03:23.216Z,15.66
2023-10-06T18:06:24.819Z,15.70
2023-10-06T18:09:26.353Z,15.73
2023-10-06T18:12:27.863Z,15.74
2023-10-06T18:15:29.357Z,15.74
2023-10-06T18:18:30.866Z,15.75
2023-10-06T18:21:32.362Z,15.74
2023-10-06T18:24:33.841Z,15.67
2023-10-06T18:27:35.354Z,15.64
2023-10-06T18:30:36.832Z,15.66
2023-10-06T18:33:38.332Z,15.67
2023-10-06T18:36:39.867Z,15.59
2023-10-06T18:39:41.353Z,15.61
2023-10-06T18:42:42.867Z,15.53
2023-10-06T18:45:44.431Z,15.56
2023-10-06T18:48:46.377Z,15.57
2023-10-06T18:51:47.906Z,15.52
2023-10-06T18:54:49.414Z,15.49
2023-10-06T18:57:51.047Z,15.53
2023-10-06T19:01:01.480Z,15.53
2023-10-06T19:04:04.841Z,15.48
2023-10-06T19:07:06.411Z,15.36
2023-10-06T19:10:08.482Z,15.41
2023-10-06T19:13:10.009Z,15.45
2023-10-06T19:16:14.415Z,15.43
2023-10-06T19:19:22.122Z,15.44
2023-10-06T19:22:23.802Z,15.44
2023-10-06T19:25:25.395Z,15.32
2023-10-06T19:28:29.506Z,15.35
2023-10-06T19:31:31.622Z,15.37
2023-10-06T19:34:33.304Z,15.30
2023-10-06T19:37:38.034Z,15.32
2023-10-06T19:40:42.658Z,15.16
2023-10-06T19:43:44.221Z,15.25
2023-10-06T19:46:48.385Z,15.28
2023-10-06T19:49:49.973Z,15.25
2023-10-06T19:52:51.580Z,15.23
2023-10-06T19:55:53.218Z,15.18
2023-10-06T19:58:56.752Z,15.14
2023-10-06T20:01:58.308Z,15.19
2023-10-06T20:04:59.912Z,15.24
2023-10-06T20:08:01.479Z,15.15
2023-10-06T20:11:05.511Z,15.13
2023-10-06T20:14:09.573Z,15.15
2023-10-06T20:17:11.172Z,15.17
2023-10-06T20:20:12.833Z,15.09
2023-10-06T20:23:14.345Z,15.15
2023-10-06T20:26:15.882Z,15.08
2023-10-06T20:29:17.458Z,15.11
2023-10-06T20:32:18.989Z,15.01
2023-10-06T20:35:22.776Z,14.98
2023-10-06T20:38:24.295Z,14.95
2023-10-06T20:41:25.826Z,14.98
2023-10-06T20:44:27.339Z,15.00
2023-10-06T20:47:29.102Z,15.03
2023-10-06T20:50:30.642Z,14.99
2023-10-06T20:53:32.160Z,14.96
2023-10-06T20:56:33.684Z,14.90
2023-10-06T20:59:40.509Z,14.90
2023-10-06T21:02:43.974Z,14.94
2023-10-06T21:05:45.568Z,14.92
2023-10-06T21:08:47.041Z,14.83
2023-10-06T21:11:48.562Z,14.87
2023-10-06T21:14:52.647Z,14.89
2023-10-06T21:17:54.226Z,14.88
2023-10-06T21:20:55.744Z,14.90
2023-10-06T21:23:57.288Z,14.90
2023-10-06T21:26:58.812Z,14.74
2023-10-06T21:30:00.378Z,14.67
2023-10-06T21:33:01.951Z,14.82
2023-10-06T21:36:03.437Z,14.84
2023-10-06T21:39:04.937Z,14.84
2023-10-06T21:42:06.415Z,14.77
2023-10-06T21:45:07.995Z,14.75
2023-10-06T21:48:09.515Z,14.73
2023-10-06T21:51:11.167Z,14.76
2023-10-06T21:54:12.828Z,14.67
2023-10-06T21:57:14.360Z,14.69
2023-10-06T22:00:15.867Z,14.69
2023-10-06T22:03:17.472Z,14.52
2023-10-06T22:06:19.038Z,14.42
2023-10-06T22:09:20.519Z,14.47
2023-10-06T22:12:22.010Z,14.61
2023-10-06T22:15:23.532Z,14.60
2023-10-06T22:18:25.062Z,14.60
2023-10-06T22:21:26.600Z,14.55
2023-10-06T22:24:28.168Z,14.56
2023-10-06T22:27:29.692Z,14.52
2023-10-06T22:30:31.272Z,14.59
2023-10-06T22:33:32.785Z,14.61
2023-10-06T22:36:34.407Z,14.46
2023-10-06T22:39:36.226Z,14.38
2023-10-06T22:42:37.748Z,14.43
2023-10-06T22:45:39.291Z,14.52
2023-10-06T22:48:40.787Z,14.50
2023-10-06T22:51:42.259Z,14.55
2023-10-06T22:54:43.724Z,14.57
2023-10-06T22:57:45.214Z,14.56
2023-10-06T23:00:46.742Z,14.56
2023-10-06T23:03:48.333Z,14.42
2023-10-06T23:06:49.897Z,14.48
2023-10-06T23:09:51.421Z,14.53
2023-10-06T23:12:52.927Z,14.52
2023-10-06T23:15:56.920Z,14.44
2023-10-06T23:18:58.534Z,14.44
2023-10-06T23:22:00.095Z,14.33
2023-10-06T23:25:01.572Z,14.26
2023-10-06T23:28:03.136Z,14.33
2023-10-06T23:31:06.095Z,14.41
2023-10-06T23:34:07.584Z,14.42
2023-10-06T23:37:09.105Z,14.29
2023-10-06T23:40:10.566Z,14.37
2023-10-06T23:43:15.219Z,14.43
2023-10-06T23:46:17.149Z,14.43
2023-10-06T23:49:18.875Z,14.43
2023-10-06T23:52:20.393Z,14.38
2023-10-06T23:55:21.835Z,14.46
2023-10-06T23:58:23.376Z,14.46
